createdAt,value
2018-05-26T00:00:37.842Z,88.95
2018-05-26T00:03:09.012Z,85.18
2018-05-26T00:05:40.229Z,87.00
2018-05-26T00:08:11.421Z,94.15
2018-05-26T00:10:42.490Z,89.03
2018-05-26T00:13:13.688Z,94.03
2018-05-26T00:15:44.827Z,91.43
2018-05-26T00:18:15.994Z,88.55
2018-05-26T00:20:47.216Z,90.78
2018-05-26T00:23:18.339Z,93.97
2018-05-26T00:25:49.561Z,85.97
2018-05-26T00:28:20.802Z,88.68
2018-05-26T00:30:51.903Z,84.22
2018-05-26T00:33:23.051Z,86.05
2018-05-26T00:35:54.235Z,89.95
2018-05-26T00:38:25.354Z,85.05
2018-05-26T00:40:56.556Z,81.50
2018-05-26T00:43:27.817Z,84.53
2018-05-26T00:45:58.967Z,91.10
2018-05-26T00:48:30.258Z,89.20
2018-05-26T00:51:01.488Z,89.57
2018-05-26T00:53:32.779Z,86.78
2018-05-26T00:56:04.285Z,94.18
2018-05-26T00:58:35.503Z,95.30
2018-05-26T01:01:06.725Z,92.22
2018-05-26T01:03:38.012Z,90.15
2018-05-26T01:06:09.085Z,87.60
2018-05-26T01:08:40.837Z,85.78
2018-05-26T01:11:11.994Z,87.60
2018-05-26T01:13:43.115Z,85.85
2018-05-26T01:16:14.257Z,84.18
2018-05-26T01:18:45.317Z,85.78
2018-05-26T01:21:16.452Z,88.10
2018-05-26T01:23:47.581Z,93.35
2018-05-26T01:26:18.838Z,92.60
2018-05-26T01:28:49.963Z,84.87
2018-05-26T01:31:21.097Z,83.82
2018-05-26T01:33:52.270Z,92.97
2018-05-26T01:36:23.416Z,85.07
2018-05-26T01:38:54.602Z,87.82
2018-05-26T01:41:25.986Z,89.53
2018-05-26T01:43:57.023Z,83.85
2018-05-26T01:46:28.127Z,79.95
2018-05-26T01:48:59.286Z,85.20
2018-05-26T01:51:30.439Z,83.93
2018-05-26T01:54:01.632Z,85.40
2018-05-26T01:56:32.764Z,92.15
2018-05-26T01:59:16.517Z,93.28
2018-05-26T02:01:47.899Z,89.55
2018-05-26T02:04:19.038Z,87.62
2018-05-26T02:06:50.061Z,91.80
2018-05-26T02:09:21.525Z,93.18
2018-05-26T02:11:52.564Z,91.85
2018-05-26T02:14:23.681Z,91.05
2018-05-26T02:16:54.809Z,89.53
2018-05-26T02:19:25.970Z,89.30
2018-05-26T02:21:57.033Z,86.32
2018-05-26T02:24:28.109Z,86.37
2018-05-26T02:26:59.161Z,85.35
2018-05-26T02:29:30.296Z,83.82
2018-05-26T02:32:01.495Z,82.60
2018-05-26T02:34:32.661Z,85.45
2018-05-26T02:37:03.826Z,86.82
2018-05-26T02:39:35.038Z,83.85
2018-05-26T02:42:06.315Z,88.85
2018-05-26T02:44:37.429Z,89.60
2018-05-26T02:47:08.577Z,88.55
2018-05-26T02:49:40.356Z,80.95
2018-05-26T02:52:11.470Z,84.75
2018-05-26T02:54:42.753Z,84.70
2018-05-26T02:57:13.838Z,88.82
2018-05-26T02:59:45.182Z,110.20
2018-05-26T03:02:16.216Z,113.60
2018-05-26T03:04:52.455Z,111.75
2018-05-26T03:07:28.426Z,88.60
2018-05-26T03:10:05.095Z,90.80
2018-05-26T03:12:41.088Z,84.18
2018-05-26T03:15:11.388Z,87.80
2018-05-26T03:17:42.694Z,82.53
2018-05-26T03:20:13.850Z,83.32
2018-05-26T03:22:45.083Z,83.93
2018-05-26T03:25:16.331Z,85.07
2018-05-26T03:27:47.369Z,86.78
2018-05-26T03:30:18.582Z,87.40
2018-05-26T03:32:49.783Z,85.62
2018-05-26T03:35:21.058Z,83.47
2018-05-26T03:37:52.116Z,84.07
2018-05-26T03:40:23.349Z,86.43
2018-05-26T03:42:54.382Z,91.50
2018-05-26T03:45:25.501Z,89.00
2018-05-26T03:47:56.640Z,89.50
2018-05-26T03:50:27.754Z,87.62
2018-05-26T03:52:59.131Z,84.53
2018-05-26T03:59:47.017Z,89.50
2018-05-26T04:02:18.266Z,88.80
2018-05-26T04:04:49.345Z,89.95
2018-05-26T04:07:20.331Z,89.80
2018-05-26T04:09:51.462Z,79.37
2018-05-26T04:12:22.558Z,84.03
2018-05-26T04:14:53.648Z,85.80
2018-05-26T04:17:24.647Z,84.13
2018-05-26T04:19:55.744Z,85.43
2018-05-26T04:22:26.806Z,84.57
2018-05-26T04:24:58.101Z,84.90
2018-05-26T04:27:29.122Z,82.50
2018-05-26T04:30:00.501Z,85.75
2018-05-26T04:32:31.770Z,86.45
2018-05-26T04:35:02.973Z,78.97
2018-05-26T04:37:34.206Z,73.10
2018-05-26T04:40:05.293Z,77.22
2018-05-26T04:42:36.299Z,78.97
2018-05-26T04:45:07.366Z,82.55
2018-05-26T04:47:38.639Z,79.30
2018-05-26T04:50:09.693Z,79.93
2018-05-26T04:52:40.776Z,79.35
2018-05-26T04:55:11.856Z,79.62
2018-05-26T04:57:42.985Z,85.82
2018-05-26T05:00:14.068Z,86.30
2018-05-26T05:02:45.313Z,84.53
2018-05-26T05:05:16.350Z,83.93
2018-05-26T05:07:47.472Z,83.22
2018-05-26T05:10:18.648Z,87.55
2018-05-26T05:12:49.655Z,92.25
2018-05-26T05:15:20.760Z,89.90
2018-05-26T05:17:51.853Z,93.53
2018-05-26T05:20:23.122Z,94.72
2018-05-26T05:22:54.211Z,90.55
2018-05-26T05:25:25.400Z,93.15
2018-05-26T05:27:56.633Z,95.90
2018-05-26T05:30:27.979Z,92.32
2018-05-26T05:32:58.947Z,93.30
2018-05-26T05:35:30.448Z,93.53
2018-05-26T05:38:01.581Z,93.90
2018-05-26T05:40:33.257Z,90.10
2018-05-26T05:43:04.484Z,89.55
2018-05-26T05:45:35.526Z,92.78
2018-05-26T05:48:06.707Z,95.85
2018-05-26T05:50:37.786Z,102.62
2018-05-26T05:53:09.057Z,93.45
2018-05-26T05:55:41.672Z,98.25
2018-05-26T05:58:12.819Z,102.35
2018-05-26T06:00:44.053Z,98.12
2018-05-26T06:03:15.263Z,103.03
2018-05-26T06:05:46.398Z,98.22
2018-05-26T06:08:17.492Z,92.68
2018-05-26T06:10:48.525Z,94.62
2018-05-26T06:13:19.529Z,90.00
2018-05-26T06:15:50.574Z,92.15
2018-05-26T06:18:21.617Z,93.30
2018-05-26T06:20:53.925Z,96.50
2018-05-26T06:23:24.990Z,101.82
2018-05-26T06:25:56.744Z,98.32
2018-05-26T06:28:28.072Z,98.30
2018-05-26T06:30:59.513Z,94.22
2018-05-26T06:33:30.620Z,98.00
2018-05-26T06:36:01.903Z,110.25
2018-05-26T06:38:33.242Z,100.55
2018-05-26T06:41:04.390Z,103.18
2018-05-26T06:43:35.758Z,106.32
2018-05-26T06:46:06.735Z,102.60
2018-05-26T06:48:38.677Z,102.80
2018-05-26T06:51:09.962Z,100.15
2018-05-26T06:53:41.312Z,98.85
2018-05-26T06:56:12.863Z,97.03
2018-05-26T06:58:46.298Z,90.38
2018-05-26T07:01:17.938Z,96.65
2018-05-26T07:03:49.345Z,94.75
2018-05-26T07:06:20.652Z,100.60
2018-05-26T07:08:52.871Z,99.35
2018-05-26T07:11:24.323Z,107.18
2018-05-26T07:13:55.536Z,106.70
2018-05-26T07:16:29.038Z,93.78
2018-05-26T07:19:00.833Z,97.03
2018-05-26T07:21:32.043Z,98.53
2018-05-26T07:24:03.175Z,93.05
2018-05-26T07:26:34.350Z,98.90
2018-05-26T07:29:05.646Z,116.90
2018-05-26T07:31:36.866Z,101.20
2018-05-26T07:34:08.552Z,103.15
2018-05-26T07:36:40.577Z,105.82
2018-05-26T07:39:13.254Z,99.93
2018-05-26T07:41:45.031Z,99.85
2018-05-26T07:44:16.423Z,101.97
2018-05-26T07:46:47.834Z,93.22
2018-05-26T07:49:19.738Z,96.15
2018-05-26T07:51:51.055Z,99.45
2018-05-26T07:54:22.746Z,93.15
2018-05-26T07:56:54.531Z,95.68
2018-05-26T07:59:25.997Z,100.30
2018-05-26T08:01:57.506Z,92.82
2018-05-26T08:04:29.068Z,99.87
2018-05-26T08:07:00.469Z,95.28
2018-05-26T08:09:31.963Z,89.65
2018-05-26T08:12:03.535Z,96.68
2018-05-26T08:14:34.996Z,95.10
2018-05-26T08:17:06.654Z,99.37
2018-05-26T08:19:37.999Z,99.45
2018-05-26T08:22:09.612Z,101.47
2018-05-26T08:24:41.220Z,99.43
2018-05-26T08:27:12.737Z,94.43
2018-05-26T08:29:44.232Z,94.60
2018-05-26T08:32:15.752Z,102.78
2018-05-26T08:34:47.008Z,95.50
2018-05-26T08:37:18.468Z,102.55
2018-05-26T08:39:49.914Z,90.20
2018-05-26T08:42:21.226Z,97.03
2018-05-26T08:44:52.530Z,94.90
2018-05-26T08:47:23.781Z,99.20
2018-05-26T08:49:55.206Z,100.03
2018-05-26T08:52:26.521Z,101.15
2018-05-26T08:54:57.797Z,97.45
2018-05-26T08:57:29.063Z,101.30
2018-05-26T09:00:00.251Z,99.55
2018-05-26T09:02:31.627Z,102.03
2018-05-26T09:05:02.979Z,91.22
2018-05-26T09:07:34.227Z,94.37
2018-05-26T09:10:05.584Z,94.97
2018-05-26T09:12:36.862Z,96.60
2018-05-26T09:15:08.227Z,102.43
2018-05-26T09:17:39.855Z,93.80
2018-05-26T09:20:11.665Z,90.93
2018-05-26T09:22:42.981Z,91.78
2018-05-26T09:25:14.567Z,97.32
2018-05-26T09:27:45.745Z,100.38
2018-05-26T09:30:17.059Z,100.22
2018-05-26T09:32:48.273Z,98.03
2018-05-26T09:35:19.304Z,96.55
2018-05-26T09:37:50.635Z,103.40
2018-05-26T09:40:22.538Z,96.63
2018-05-26T09:42:53.849Z,97.97
2018-05-26T09:45:25.045Z,93.00
2018-05-26T09:47:56.482Z,101.53
2018-05-26T09:50:27.764Z,98.57
2018-05-26T09:52:58.877Z,96.35
2018-05-26T09:55:30.312Z,104.10
2018-05-26T09:58:01.930Z,106.95
2018-05-26T10:00:33.341Z,96.22
2018-05-26T10:03:04.782Z,103.68
2018-05-26T10:05:35.923Z,103.80
2018-05-26T10:08:07.061Z,103.15
2018-05-26T10:10:38.150Z,100.55
2018-05-26T10:13:09.350Z,105.37
2018-05-26T10:15:40.547Z,110.80
2018-05-26T10:18:11.838Z,94.95
2018-05-26T10:20:43.222Z,95.72
2018-05-26T10:23:15.822Z,95.22
2018-05-26T10:25:47.283Z,97.07
2018-05-26T10:28:18.559Z,94.60
2018-05-26T10:30:49.808Z,96.80
2018-05-26T10:33:20.787Z,100.43
2018-05-26T10:35:52.062Z,100.60
2018-05-26T10:38:23.142Z,99.90
2018-05-26T10:40:54.327Z,108.57
2018-05-26T10:43:25.797Z,108.60
2018-05-26T10:46:05.670Z,100.90
2018-05-26T10:48:36.819Z,109.12
2018-05-26T10:51:08.058Z,98.70
2018-05-26T10:53:38.990Z,99.35
2018-05-26T10:56:10.706Z,101.15
2018-05-26T10:58:41.831Z,97.20
2018-05-26T11:01:13.104Z,100.38
2018-05-26T11:03:44.346Z,102.20
2018-05-26T11:06:15.364Z,100.45
2018-05-26T11:08:46.531Z,99.80
2018-05-26T11:11:17.639Z,97.88
2018-05-26T11:13:48.819Z,100.10
2018-05-26T11:16:19.869Z,105.03
2018-05-26T11:18:53.220Z,105.70
2018-05-26T11:21:26.241Z,110.47
2018-05-26T11:23:57.556Z,105.05
2018-05-26T11:26:28.887Z,110.57
2018-05-26T11:29:00.070Z,108.47
2018-05-26T11:31:32.909Z,103.43
2018-05-26T11:34:04.451Z,98.87
2018-05-26T11:36:35.598Z,101.38
2018-05-26T11:39:07.318Z,102.85
2018-05-26T11:41:38.325Z,100.72
2018-05-26T11:44:09.914Z,99.07
2018-05-26T11:46:40.963Z,104.15
2018-05-26T11:49:12.088Z,104.53
2018-05-26T11:51:43.145Z,109.60
2018-05-26T11:54:14.363Z,113.37
2018-05-26T11:56:45.564Z,102.05
2018-05-26T11:59:17.697Z,102.85
2018-05-26T12:01:48.933Z,103.22
2018-05-26T12:04:19.918Z,95.65
2018-05-26T12:06:51.066Z,107.07
2018-05-26T12:09:22.269Z,106.32
2018-05-26T12:11:53.384Z,106.28
2018-05-26T12:14:24.645Z,112.55
2018-05-26T12:16:55.740Z,104.18
2018-05-26T12:19:26.789Z,105.10
2018-05-26T12:21:58.343Z,102.32
2018-05-26T12:24:29.280Z,106.85
2018-05-26T12:27:00.476Z,99.35
2018-05-26T12:29:31.642Z,101.93
2018-05-26T12:32:03.088Z,101.82
2018-05-26T12:34:34.255Z,99.25
2018-05-26T12:37:05.455Z,100.62
2018-05-26T12:39:37.093Z,91.93
2018-05-26T12:42:08.369Z,93.10
2018-05-26T12:44:39.527Z,88.40
2018-05-26T12:47:10.585Z,95.57
2018-05-26T12:49:41.861Z,102.43
2018-05-26T12:52:13.049Z,95.82
2018-05-26T12:54:44.191Z,92.03
2018-05-26T12:57:16.138Z,93.78
2018-05-26T12:59:47.428Z,95.72
2018-05-26T13:02:18.573Z,97.00
2018-05-26T13:04:49.685Z,94.57
2018-05-26T13:07:20.774Z,98.93
2018-05-26T13:09:52.107Z,95.80
2018-05-26T13:12:23.218Z,94.62
2018-05-26T13:14:55.033Z,97.32
2018-05-26T13:17:26.207Z,101.93
2018-05-26T13:19:57.280Z,108.75
2018-05-26T13:22:28.394Z,106.43
2018-05-26T13:24:59.395Z,101.05
2018-05-26T13:27:30.625Z,95.43
2018-05-26T13:30:02.307Z,102.87
2018-05-26T13:32:33.584Z,102.30
2018-05-26T13:35:05.502Z,104.50
2018-05-26T13:37:36.739Z,103.65
2018-05-26T13:40:07.813Z,101.93
2018-05-26T13:42:39.590Z,106.00
2018-05-26T13:45:11.169Z,105.25
2018-05-26T13:47:43.427Z,108.40
2018-05-26T13:50:16.164Z,104.45
2018-05-26T13:52:47.600Z,100.55
2018-05-26T13:55:20.782Z,105.63
2018-05-26T13:57:51.952Z,112.82
2018-05-26T14:00:24.214Z,103.72
2018-05-26T14:02:55.277Z,98.37
2018-05-26T14:05:26.455Z,108.80
2018-05-26T14:07:57.553Z,106.68
2018-05-26T14:10:28.663Z,103.87
2018-05-26T14:13:00.147Z,106.22
2018-05-26T14:15:31.246Z,111.15
2018-05-26T14:18:02.586Z,105.70
2018-05-26T14:20:33.742Z,109.25
2018-05-26T14:23:05.308Z,99.87
2018-05-26T14:25:36.337Z,97.20
2018-05-26T14:28:07.514Z,102.95
2018-05-26T14:30:38.518Z,104.45
2018-05-26T14:33:09.709Z,104.53
2018-05-26T14:35:40.689Z,104.28
2018-05-26T14:38:11.962Z,106.35
2018-05-26T14:40:43.233Z,101.75
2018-05-26T14:43:14.687Z,105.85
2018-05-26T14:45:45.802Z,108.35
2018-05-26T14:48:17.134Z,101.40
2018-05-26T14:50:48.370Z,109.45
2018-05-26T14:53:19.570Z,104.95
2018-05-26T14:55:50.846Z,106.37
2018-05-26T14:58:22.336Z,106.57
2018-05-26T15:00:53.517Z,109.32
2018-05-26T15:03:25.192Z,105.37
2018-05-26T15:05:58.428Z,101.45
2018-05-26T15:08:32.722Z,105.90
2018-05-26T15:11:05.741Z,107.55
2018-05-26T15:13:36.735Z,100.07
2018-05-26T15:16:08.125Z,102.82
2018-05-26T15:18:40.080Z,91.63
2018-05-26T15:21:13.886Z,97.68
2018-05-26T15:23:46.267Z,99.35
2018-05-26T15:26:17.557Z,93.43
2018-05-26T15:28:48.509Z,95.10
2018-05-26T15:31:19.647Z,100.50
2018-05-26T15:33:50.673Z,99.75
2018-05-26T15:36:21.985Z,97.75
2018-05-26T15:38:52.986Z,109.20
2018-05-26T15:41:24.298Z,102.18
2018-05-26T15:43:55.614Z,101.30
2018-05-26T15:46:27.024Z,100.97
2018-05-26T15:48:58.303Z,102.97
2018-05-26T15:51:35.373Z,106.22
2018-05-26T15:54:09.215Z,99.00
2018-05-26T15:56:40.349Z,98.95
2018-05-26T15:59:11.829Z,98.87
2018-05-26T16:01:44.275Z,98.93
2018-05-26T16:04:16.366Z,103.35
2018-05-26T16:06:48.667Z,96.15
2018-05-26T16:09:20.166Z,102.80
2018-05-26T16:11:51.137Z,96.12
2018-05-26T16:14:22.309Z,101.43
2018-05-26T16:16:53.710Z,105.82
2018-05-26T16:19:26.365Z,104.00
2018-05-26T16:21:57.950Z,103.18
2018-05-26T16:24:30.112Z,105.93
2018-05-26T16:27:02.233Z,100.25
2018-05-26T16:29:33.836Z,107.18
2018-05-26T16:32:05.159Z,103.40
2018-05-26T16:34:36.713Z,100.93
2018-05-26T16:37:08.565Z,103.18
2018-05-26T16:39:40.111Z,106.05
2018-05-26T16:42:11.341Z,101.38
2018-05-26T16:44:42.921Z,102.70
2018-05-26T16:47:14.835Z,112.10
2018-05-26T16:49:46.177Z,108.40
2018-05-26T16:52:18.229Z,103.82
2018-05-26T16:54:49.765Z,104.40
2018-05-26T16:57:22.018Z,104.50
2018-05-26T16:59:53.381Z,105.12
2018-05-26T17:02:25.479Z,108.03
2018-05-26T17:04:56.905Z,106.05
2018-05-26T17:07:28.225Z,100.40
2018-05-26T17:09:59.589Z,97.90
2018-05-26T17:12:31.238Z,101.80
2018-05-26T17:15:03.091Z,101.38
2018-05-26T17:17:34.283Z,103.60
2018-05-26T17:20:06.165Z,113.72
2018-05-26T17:22:37.824Z,110.80
2018-05-26T17:25:08.949Z,109.60
2018-05-26T17:27:40.515Z,108.07
2018-05-26T17:30:12.436Z,106.50
2018-05-26T17:32:43.894Z,107.20
2018-05-26T17:35:15.446Z,102.68
2018-05-26T17:37:47.702Z,117.53
2018-05-26T17:40:19.776Z,112.32
2018-05-26T17:42:51.279Z,113.07
2018-05-26T17:45:23.171Z,109.50
2018-05-26T17:47:54.783Z,114.95
2018-05-26T17:50:26.449Z,109.03
2018-05-26T17:52:58.474Z,161.18
2018-05-26T17:55:30.769Z,109.00
2018-05-26T17:58:02.363Z,111.05
2018-05-26T18:00:35.067Z,105.70
2018-05-26T18:03:07.632Z,110.80
2018-05-26T18:05:38.837Z,102.68
2018-05-26T18:08:10.059Z,102.18
2018-05-26T18:10:42.297Z,108.28
2018-05-26T18:13:13.421Z,104.25
2018-05-26T18:15:44.798Z,117.22
2018-05-26T18:18:16.005Z,111.70
2018-05-26T18:20:47.418Z,110.80
2018-05-26T18:23:19.774Z,115.82
2018-05-26T18:25:52.818Z,117.15
2018-05-26T18:28:26.504Z,123.55
2018-05-26T18:30:58.777Z,118.50
2018-05-26T18:33:30.061Z,107.20
2018-05-26T18:36:01.163Z,110.75
2018-05-26T18:38:32.300Z,110.00
2018-05-26T18:41:03.648Z,103.95
2018-05-26T18:43:35.051Z,102.15
2018-05-26T18:46:06.483Z,108.45
2018-05-26T18:48:38.079Z,108.78
2018-05-26T18:51:09.837Z,102.25
2018-05-26T18:53:41.112Z,107.45
2018-05-26T18:56:12.812Z,104.47
2018-05-26T18:58:44.143Z,119.40
2018-05-26T19:01:16.336Z,119.47
2018-05-26T19:03:49.006Z,106.30
2018-05-26T19:06:20.354Z,104.22
2018-05-26T19:08:52.034Z,108.93
2018-05-26T19:11:23.438Z,110.88
2018-05-26T19:13:55.103Z,102.90
2018-05-26T19:16:26.259Z,106.75
2018-05-26T19:18:57.525Z,99.25
2018-05-26T19:21:29.047Z,107.63
2018-05-26T19:24:00.333Z,103.85
2018-05-26T19:26:31.858Z,103.32
2018-05-26T19:29:03.010Z,101.35
2018-05-26T19:31:34.660Z,98.55
2018-05-26T19:34:05.719Z,110.20
2018-05-26T19:36:36.837Z,105.75
2018-05-26T19:39:07.964Z,110.88
2018-05-26T19:41:39.181Z,131.95
2018-05-26T19:44:10.458Z,141.25
2018-05-26T19:46:41.504Z,114.62
2018-05-26T19:49:12.745Z,108.37
2018-05-26T19:51:43.956Z,113.53
2018-05-26T19:54:15.584Z,121.10
2018-05-26T19:56:47.290Z,112.25
2018-05-26T19:59:18.405Z,117.28
2018-05-26T20:01:50.032Z,106.32
2018-05-26T20:04:21.277Z,106.00
2018-05-26T20:06:52.788Z,107.57
2018-05-26T20:09:23.945Z,118.10
2018-05-26T20:11:55.218Z,137.77
2018-05-26T20:14:26.804Z,119.93
2018-05-26T20:16:58.499Z,105.55
2018-05-26T20:19:29.738Z,116.95
2018-05-26T20:22:01.060Z,110.90
2018-05-26T20:24:33.089Z,103.20
2018-05-26T20:27:04.620Z,104.97
2018-05-26T20:29:36.032Z,111.70
2018-05-26T20:32:07.505Z,98.40
2018-05-26T20:34:38.993Z,106.57
2018-05-26T20:37:10.387Z,102.60
2018-05-26T20:39:41.568Z,102.28
2018-05-26T20:42:12.924Z,104.85
2018-05-26T20:44:44.030Z,103.30
2018-05-26T20:47:15.204Z,98.70
2018-05-26T20:49:46.338Z,104.40
2018-05-26T20:52:17.606Z,107.10
2018-05-26T20:54:49.021Z,104.07
2018-05-26T20:57:20.216Z,100.55
2018-05-26T20:59:56.284Z,106.82
2018-05-26T21:02:29.262Z,97.85
2018-05-26T21:05:00.609Z,113.03
2018-05-26T21:07:31.890Z,106.03
2018-05-26T21:10:03.183Z,101.75
2018-05-26T21:12:34.424Z,102.18
2018-05-26T21:15:05.537Z,103.68
2018-05-26T21:17:37.150Z,101.85
2018-05-26T21:20:08.341Z,108.93
2018-05-26T21:22:39.591Z,102.70
2018-05-26T21:25:10.846Z,104.35
2018-05-26T21:27:41.998Z,106.28
2018-05-26T21:30:13.301Z,109.12
2018-05-26T21:32:44.577Z,112.80
2018-05-26T21:35:15.729Z,103.43
2018-05-26T21:37:46.771Z,110.00
2018-05-26T21:40:17.900Z,100.70
2018-05-26T21:42:49.154Z,100.00
2018-05-26T21:45:20.368Z,104.70
2018-05-26T21:47:52.823Z,108.05
2018-05-26T21:50:23.995Z,104.68
2018-05-26T21:52:55.307Z,104.22
2018-05-26T21:55:26.410Z,103.50
2018-05-26T21:57:57.760Z,110.93
2018-05-26T22:00:29.957Z,105.93
2018-05-26T22:03:01.250Z,107.82
2018-05-26T22:05:32.694Z,107.37
2018-05-26T22:08:03.886Z,105.78
2018-05-26T22:10:35.054Z,101.95
2018-05-26T22:13:06.382Z,103.68
2018-05-26T22:15:37.693Z,106.07
2018-05-26T22:18:09.002Z,101.65
2018-05-26T22:20:40.322Z,108.00
2018-05-26T22:23:11.588Z,107.82
2018-05-26T22:25:43.342Z,106.78
2018-05-26T22:28:15.030Z,105.32
2018-05-26T22:30:46.278Z,104.78
2018-05-26T22:33:17.388Z,103.82
2018-05-26T22:35:48.570Z,110.20
2018-05-26T22:38:19.858Z,113.72
2018-05-26T22:40:51.469Z,103.85
2018-05-26T22:43:22.643Z,101.60
2018-05-26T22:45:53.839Z,100.12
2018-05-26T22:48:25.072Z,101.80
2018-05-26T22:50:56.362Z,98.95
2018-05-26T22:53:27.532Z,99.07
2018-05-26T22:55:58.686Z,103.75
2018-05-26T22:58:29.928Z,100.93
2018-05-26T23:01:01.248Z,103.47
2018-05-26T23:03:32.430Z,95.80
2018-05-26T23:06:03.735Z,105.03
2018-05-26T23:08:34.981Z,101.18
2018-05-26T23:11:06.309Z,105.25
2018-05-26T23:13:37.506Z,106.35
2018-05-26T23:16:08.603Z,102.12
2018-05-26T23:18:39.881Z,107.68
2018-05-26T23:21:10.969Z,104.65
2018-05-26T23:23:42.221Z,97.60
2018-05-26T23:26:14.106Z,98.20
2018-05-26T23:28:45.275Z,103.95
2018-05-26T23:31:16.531Z,96.57
2018-05-26T23:33:47.814Z,99.00
2018-05-26T23:36:19.029Z,96.70
2018-05-26T23:38:50.125Z,102.18
2018-05-26T23:41:21.469Z,98.12
2018-05-26T23:43:52.557Z,101.05
2018-05-26T23:46:23.807Z,97.25
2018-05-26T23:48:54.945Z,91.75
2018-05-26T23:51:26.438Z,96.22
2018-05-26T23:53:57.735Z,98.93
2018-05-26T23:56:28.905Z,95.43
2018-05-26T23:59:00.177Z,96.18
